Time;durP1;ratioP1;P1;durP2;ratioP2;P2;SDS_P1;SDS_P2;PMS_P1;PMS_P2;Temp;Humidity;BMP_temperature;BMP_pressure;BME280_temperature;BME280_humidity;BME280_pressure;Samples;Min_cycle;Max_cycle;Signal;HPM_P1;HPM_P2
2022/06/12 00:01:23;;;;;;;9.70;4.65;;;;;;;16.02;58.48;101493.53;5033453;28;20059;-67
2022/06/12 00:03:50;;;;;;;8.05;4.63;;;;;;;15.99;58.97;101510.16;5033263;28;20128;-68
2022/06/12 00:06:19;;;;;;;15.57;5.03;;;;;;;15.97;59.05;101507.59;5032985;28;20056;-68
2022/06/12 00:08:46;;;;;;;11.32;5.00;;;;;;;16.01;59.19;101510.78;5033097;28;20125;-68
2022/06/12 00:11:21;;;;;;;10.50;5.25;;;;;;;15.94;59.67;101510.66;5033238;28;20045;-67
2022/06/12 00:13:51;;;;;;;8.18;4.60;;;;;;;15.91;59.77;101511.00;5033336;28;20549;-68
2022/06/12 00:16:20;;;;;;;12.60;4.75;;;;;;;15.94;59.54;101503.38;5035951;28;20552;-69
2022/06/12 00:18:46;;;;;;;11.18;4.60;;;;;;;15.89;59.78;101502.25;5036852;28;20045;-68
2022/06/12 00:21:15;;;;;;;10.52;5.72;;;;;;;15.93;59.53;101508.97;5037002;28;20084;-67
2022/06/12 00:23:53;;;;;;;10.57;4.78;;;;;;;15.92;59.72;101504.59;5036685;28;20049;-68
2022/06/12 00:26:32;;;;;;;10.02;5.18;;;;;;;15.96;59.74;101503.22;5037283;28;20049;-68
2022/06/12 00:29:06;;;;;;;11.00;5.55;;;;;;;15.92;59.80;101510.00;5036325;28;20089;-67
2022/06/12 00:31:38;;;;;;;9.60;5.03;;;;;;;15.89;59.81;101504.94;5036542;28;20568;-68
2022/06/12 00:34:05;;;;;;;8.93;4.80;;;;;;;15.91;59.69;101506.44;5018882;28;20050;-68
2022/06/12 00:36:32;;;;;;;17.88;9.95;;;;;;;15.93;59.74;101506.28;5036080;28;20099;-68
2022/06/12 00:39:00;;;;;;;13.85;6.57;;;;;;;15.93;59.88;101499.00;5036609;28;20532;-68
2022/06/12 00:41:27;;;;;;;11.88;5.60;;;;;;;15.95;59.79;101502.38;5036794;28;20111;-68
2022/06/12 00:43:53;;;;;;;17.67;9.40;;;;;;;16.00;59.79;101501.00;5036064;28;20077;-68
2022/06/12 00:46:35;;;;;;;9.90;5.25;;;;;;;15.89;60.12;101499.53;5036033;28;20103;-68
2022/06/12 00:49:24;;;;;;;8.73;5.10;;;;;;;15.88;59.99;101503.25;5036046;28;20045;-68
2022/06/12 00:52:03;;;;;;;17.13;5.00;;;;;;;15.87;60.36;101488.88;5023604;28;20045;-68
2022/06/12 00:54:30;;;;;;;8.30;5.10;;;;;;;15.87;60.47;101497.00;5036246;28;20132;-67
2022/06/12 00:56:59;;;;;;;11.73;4.93;;;;;;;15.82;60.61;101493.97;5035930;28;20045;-67
2022/06/12 00:59:53;;;;;;;13.35;5.68;;;;;;;15.78;60.70;101492.66;5035952;28;20089;-67
2022/06/12 01:02:24;;;;;;;18.15;9.02;;;;;;;15.77;60.87;101487.41;5035701;28;20147;-68
2022/06/12 01:07:59;;;;;;;10.15;5.93;;;;;;;15.74;61.00;101495.88;5035590;28;20060;-68
2022/06/12 01:10:28;;;;;;;7.90;5.07;;;;;;;15.65;61.50;101495.91;5035856;28;20216;-68
2022/06/12 01:13:04;;;;;;;8.68;5.15;;;;;;;15.63;61.53;101491.69;5035575;28;20057;-67
2022/06/12 01:15:46;;;;;;;10.77;5.20;;;;;;;15.60;61.64;101489.28;5036393;28;20057;-67
2022/06/12 01:18:14;;;;;;;;;;;;;;;15.59;61.69;101487.63;5036725;28;20133;-68
2022/06/12 01:20:53;;;;;;;10.18;5.50;;;;;;;15.52;61.90;101486.63;5036133;28;19964;-67
2022/06/12 01:23:50;;;;;;;13.38;4.82;;;;;;;15.51;61.86;101491.19;5035895;28;20082;-67
2022/06/12 01:26:36;;;;;;;19.35;5.85;;;;;;;15.49;62.21;101487.81;5036075;28;20558;-67
2022/06/12 01:29:29;;;;;;;12.25;5.32;;;;;;;15.51;62.22;101479.53;5034997;28;20041;-68
2022/06/12 01:32:07;;;;;;;15.18;6.30;;;;;;;15.47;62.40;101470.94;5027141;28;20148;-68
2022/06/12 01:34:55;;;;;;;15.43;8.27;;;;;;;15.47;62.38;101479.03;5035449;28;20478;-68
2022/06/12 01:37:50;;;;;;;8.95;6.65;;;;;;;15.38;62.63;101475.50;5035351;28;20049;-67
2022/06/12 01:40:33;;;;;;;8.70;5.07;;;;;;;15.37;62.69;101481.09;5035853;28;20093;-67
2022/06/12 01:43:25;;;;;;;14.35;6.10;;;;;;;15.32;62.98;101470.78;5035778;28;20104;-67
2022/06/12 01:46:12;;;;;;;9.93;5.80;;;;;;;15.37;62.97;101468.44;5035694;28;20103;-67
2022/06/12 01:49:01;;;;;;;12.57;5.57;;;;;;;15.37;63.11;101462.19;5035715;28;20052;-67
2022/06/12 01:51:31;;;;;;;13.93;6.60;;;;;;;15.35;63.08;101466.91;5036131;28;20132;-67
2022/06/12 01:54:11;;;;;;;9.23;6.20;;;;;;;15.31;63.41;101465.56;5035351;28;20140;-68
2022/06/12 01:57:00;;;;;;;9.27;4.78;;;;;;;15.27;63.28;101462.38;5035730;28;20484;-67
2022/06/12 01:59:30;;;;;;;9.30;5.15;;;;;;;15.27;63.57;101466.94;5035711;28;20133;-67
2022/06/12 02:02:07;;;;;;;9.20;5.50;;;;;;;15.29;63.55;101464.88;5034879;28;20080;-68
2022/06/12 02:04:58;;;;;;;10.73;5.75;;;;;;;15.26;63.74;101460.69;5034869;28;20053;-67
2022/06/12 02:07:35;;;;;;;9.00;5.45;;;;;;;15.28;63.78;101464.06;5035074;28;20096;-68
2022/06/12 02:10:17;;;;;;;14.48;5.53;;;;;;;15.18;63.88;101469.63;5034600;28;20080;-68
2022/06/12 02:15:41;;;;;;;10.90;5.05;;;;;;;15.09;64.45;101470.69;5035566;28;20056;-68
2022/06/12 02:18:20;;;;;;;9.75;5.40;;;;;;;15.08;64.31;101463.59;5035038;28;20125;-68
2022/06/12 02:20:52;;;;;;;13.15;5.20;;;;;;;15.09;64.58;101451.78;5035796;28;20456;-68
2022/06/12 02:23:26;;;;;;;9.02;5.43;;;;;;;15.08;64.40;101451.94;5035446;28;20087;-68
2022/06/12 02:25:55;;;;;;;11.25;6.32;;;;;;;15.08;64.27;101455.47;5034489;28;20084;-67
2022/06/12 02:28:46;;;;;;;11.20;5.93;;;;;;;15.08;64.52;101439.25;5034802;28;20050;-68
2022/06/12 02:31:26;;;;;;;9.50;5.87;;;;;;;15.00;64.68;101440.13;5034735;28;20144;-68
2022/06/12 02:33:58;;;;;;;11.95;5.25;;;;;;;14.95;65.16;101447.91;5035771;28;20132;-67
2022/06/12 02:36:31;;;;;;;9.80;5.80;;;;;;;14.93;65.24;101444.53;5034401;28;20049;-67
2022/06/12 02:39:07;;;;;;;10.23;5.82;;;;;;;14.86;65.53;101448.94;5034455;28;20124;-67
2022/06/12 02:41:56;;;;;;;9.23;5.55;;;;;;;14.91;65.40;101445.72;5035227;28;20053;-67
2022/06/12 02:44:37;;;;;;;9.52;5.85;;;;;;;14.85;65.55;101446.41;5034086;28;20093;-67
2022/06/12 02:47:11;;;;;;;10.13;5.47;;;;;;;14.88;65.46;101441.50;5034962;28;20123;-67
2022/06/12 02:49:40;;;;;;;10.63;5.68;;;;;;;14.85;65.78;101438.31;5035038;28;20049;-67
2022/06/12 02:52:21;;;;;;;11.38;5.70;;;;;;;14.88;65.59;101435.28;5034490;28;20152;-68
2022/06/12 02:55:11;;;;;;;10.50;5.80;;;;;;;14.90;65.40;101434.06;5035063;28;20533;-68
2022/06/12 02:57:56;;;;;;;15.50;6.22;;;;;;;14.86;65.55;101423.78;5034027;28;20081;-67
2022/06/12 03:00:36;;;;;;;8.82;5.80;;;;;;;14.85;65.70;101428.34;5034148;28;20136;-67
2022/06/12 03:03:17;;;;;;;13.98;6.30;;;;;;;14.77;65.97;101423.81;5034384;28;20493;-68
2022/06/12 03:05:50;;;;;;;15.38;6.80;;;;;;;14.73;66.10;101430.53;5034591;28;20065;-67
2022/06/12 03:08:23;;;;;;;9.73;6.10;;;;;;;14.74;66.03;101424.13;5034312;28;20088;-67
2022/06/12 03:11:05;;;;;;;11.68;5.75;;;;;;;14.72;66.22;101426.16;5034241;28;20132;-67
2022/06/12 03:13:33;;;;;;;11.80;5.35;;;;;;;14.75;65.87;101424.97;5034248;28;20493;-68
2022/06/12 03:16:08;;;;;;;12.35;5.88;;;;;;;14.80;65.73;101432.56;5033963;28;20095;-67
2022/06/12 03:18:39;;;;;;;10.68;5.45;;;;;;;14.77;65.82;101429.22;5034799;28;20050;-68
2022/06/12 03:21:45;;;;;;;9.70;5.10;;;;;;;14.74;66.12;101428.72;5033749;28;20053;-68
2022/06/12 03:24:34;;;;;;;13.38;6.30;;;;;;;14.75;65.87;101430.38;5033683;28;20050;-68
2022/06/12 03:27:37;;;;;;;12.25;6.10;;;;;;;14.70;66.28;101422.78;5033981;28;20053;-67
2022/06/12 03:30:04;;;;;;;11.75;5.70;;;;;;;14.65;66.48;101419.72;5033825;28;20481;-69
2022/06/12 03:32:42;;;;;;;13.77;5.93;;;;;;;14.64;66.52;101423.44;5033539;28;20478;-69
2022/06/12 03:35:27;;;;;;;12.02;5.60;;;;;;;14.72;66.22;101423.47;5033668;28;20045;-69
2022/06/12 03:38:20;;;;;;;13.35;5.60;;;;;;;14.75;66.03;101428.53;5033485;28;20460;-67
2022/06/12 03:41:08;;;;;;;9.82;5.40;;;;;;;14.83;65.86;101432.22;5033883;28;20057;-68
2022/06/12 03:43:49;;;;;;;14.27;5.88;;;;;;;14.75;66.31;101439.31;5033400;28;20132;-67
2022/06/12 03:46:41;;;;;;;13.00;6.78;;;;;;;14.69;66.48;101447.22;5033687;28;20049;-67
2022/06/12 03:49:25;;;;;;;11.77;5.93;;;;;;;14.80;66.13;101437.97;5033249;28;20540;-66
2022/06/12 03:52:15;;;;;;;13.95;6.43;;;;;;;14.82;65.86;101447.59;5036770;28;20536;-66
2022/06/12 03:54:59;;;;;;;9.27;5.72;;;;;;;14.90;65.59;101452.13;5037806;28;20053;-66
2022/06/12 03:57:53;;;;;;;12.10;5.70;;;;;;;14.81;65.97;101434.25;5037444;28;20081;-67
2022/06/12 04:00:35;;;;;;;10.10;5.55;;;;;;;14.72;66.19;101436.13;5036929;28;20048;-67
2022/06/12 04:03:11;;;;;;;9.35;5.88;;;;;;;14.69;66.27;101439.13;5037252;28;20087;-66
2022/06/12 04:05:42;;;;;;;13.45;5.90;;;;;;;14.59;66.43;101436.59;5037338;28;20478;-66
2022/06/12 04:08:15;;;;;;;10.20;5.88;;;;;;;14.54;66.63;101444.38;5037199;28;20144;-66
2022/06/12 04:10:44;;;;;;;10.70;5.38;;;;;;;14.60;66.62;101448.22;5037133;28;20083;-66
2022/06/12 04:13:14;;;;;;;11.27;5.93;;;;;;;14.69;66.16;101464.28;5037008;28;20058;-67
2022/06/12 04:15:52;;;;;;;9.15;5.15;;;;;;;15.11;64.28;101463.25;5036733;28;20099;-66
2022/06/12 04:18:19;;;;;;;16.98;5.97;;;;;;;15.09;64.92;101473.41;5036970;28;20512;-66
2022/06/12 04:21:03;;;;;;;11.63;5.22;;;;;;;15.33;64.07;101461.69;5036829;28;20085;-66
2022/06/12 04:23:41;;;;;;;11.30;6.38;;;;;;;15.09;64.75;101454.47;5036998;28;20136;-66
2022/06/12 04:26:33;;;;;;;11.23;4.43;;;;;;;15.48;62.93;101465.34;5036585;28;20092;-66
2022/06/12 04:29:10;;;;;;;5.90;3.83;;;;;;;16.70;58.37;101491.94;5036697;28;20542;-66
2022/06/12 04:31:41;;;;;;;6.63;3.83;;;;;;;16.91;57.57;101527.31;5036553;28;20065;-66
2022/06/12 04:34:26;;;;;;;8.32;5.03;;;;;;;16.80;58.36;101546.72;5036689;28;20409;-66
2022/06/12 04:36:56;;;;;;;6.35;4.43;;;;;;;16.80;58.72;101533.16;5036645;28;20186;-69
2022/06/12 04:39:26;;;;;;;9.88;4.85;;;;;;;16.41;61.06;101504.31;5036566;28;20046;-66
2022/06/12 04:41:53;;;;;;;9.13;5.00;;;;;;;16.16;64.77;101496.34;5036862;28;20050;-66
2022/06/12 04:44:20;;;;;;;8.52;5.82;;;;;;;15.86;66.66;101486.34;5036400;28;20053;-67
2022/06/12 04:46:50;;;;;;;12.00;6.57;;;;;;;15.54;67.96;101487.31;5036723;28;20137;-66
2022/06/12 04:49:20;;;;;;;9.90;5.00;;;;;;;15.33;67.39;101477.03;5036211;28;20045;-66
2022/06/12 04:51:48;;;;;;;14.07;6.30;;;;;;;15.51;66.29;101476.84;5036430;28;20128;-66
2022/06/12 04:54:16;;;;;;;11.15;4.75;;;;;;;15.78;65.70;101471.00;5036589;28;20092;-67
2022/06/12 04:56:43;;;;;;;15.25;8.40;;;;;;;15.47;69.23;101469.06;5036494;28;20132;-67
2022/06/12 04:59:13;;;;;;;23.08;13.07;;;;;;;15.41;70.57;101466.22;5036548;28;20414;-66
2022/06/12 05:01:40;;;;;;;16.83;8.75;;;;;;;15.30;72.11;101467.44;5018211;28;20077;-67
2022/06/12 05:04:07;;;;;;;15.18;8.10;;;;;;;15.22;73.03;101476.41;5035980;28;20053;-66
2022/06/12 05:06:35;;;;;;;13.48;7.70;;;;;;;15.20;72.19;101467.63;5036139;28;20128;-66
2022/06/12 05:09:03;;;;;;;15.40;6.97;;;;;;;15.27;69.64;101466.94;5036558;28;20444;-66
2022/06/12 05:11:30;;;;;;;11.10;6.25;;;;;;;15.46;68.98;101467.38;5035875;28;20525;-67
2022/06/12 05:13:56;;;;;;;13.27;7.55;;;;;;;15.44;70.26;101464.00;5036131;28;20088;-66
2022/06/12 05:16:39;;;;;;;19.38;7.75;;;;;;;15.49;70.61;101464.31;5036138;28;20073;-67
2022/06/12 05:19:08;;;;;;;10.13;7.38;;;;;;;15.65;70.88;101468.84;5035585;28;20054;-67
2022/06/12 05:21:35;;;;;;;16.52;7.55;;;;;;;15.58;70.93;101465.13;5035768;28;20084;-65
2022/06/12 05:24:03;;;;;;;17.45;7.80;;;;;;;15.46;70.77;101461.94;5035739;28;20506;-66
2022/06/12 05:26:33;;;;;;;12.10;7.30;;;;;;;15.38;70.66;101464.69;5036113;28;20057;-67
2022/06/12 05:29:02;;;;;;;15.90;8.48;;;;;;;15.37;70.95;101462.19;5035580;28;20055;-67
2022/06/12 05:31:29;;;;;;;14.48;8.60;;;;;;;15.22;70.76;101467.44;5035466;28;20089;-67
2022/06/12 05:33:56;;;;;;;14.52;8.75;;;;;;;15.33;70.54;101466.22;5035900;28;20128;-65
2022/06/12 05:36:24;;;;;;;15.10;8.85;;;;;;;15.44;70.67;101469.41;5035436;28;20081;-67
2022/06/12 05:38:51;;;;;;;21.17;8.57;;;;;;;15.58;70.11;101472.41;5035884;28;20064;-67
2022/06/12 05:41:18;;;;;;;15.93;9.05;;;;;;;15.63;70.18;101467.34;5035120;28;20111;-68
2022/06/12 05:43:45;;;;;;;11.85;7.00;;;;;;;15.68;69.28;101470.38;5035023;28;20100;-67
2022/06/12 05:46:14;;;;;;;13.55;8.02;;;;;;;15.84;68.90;101467.56;5035403;28;20148;-66
2022/06/12 05:48:42;;;;;;;10.77;7.75;;;;;;;15.99;68.93;101467.69;5035112;28;20470;-67
2022/06/12 05:51:13;;;;;;;10.50;8.02;;;;;;;15.99;69.34;101466.84;5035285;28;20529;-66
2022/06/12 05:53:39;;;;;;;11.55;6.13;;;;;;;16.13;66.55;101464.22;5035628;28;20127;-66
2022/06/12 05:56:09;;;;;;;14.75;8.48;;;;;;;16.14;68.00;101471.31;5035389;28;20082;-66
2022/06/12 05:58:36;;;;;;;9.90;6.35;;;;;;;16.40;65.27;101464.69;5035506;28;20081;-66
2022/06/12 06:01:08;;;;;;;10.98;7.28;;;;;;;16.52;66.68;101457.88;5034868;28;20056;-67
2022/06/12 06:03:36;;;;;;;13.85;7.72;;;;;;;16.39;66.82;101463.84;5035027;28;20136;-67
2022/06/12 06:06:05;;;;;;;11.15;5.40;;;;;;;16.95;63.74;101458.16;5034896;28;20049;-66
2022/06/12 06:08:32;;;;;;;14.05;8.15;;;;;;;16.93;66.24;101457.50;5034722;28;20053;-66
2022/06/12 06:10:59;;;;;;;11.68;6.43;;;;;;;16.82;65.55;101455.25;5034937;28;20081;-66
2022/06/12 06:13:25;;;;;;;12.57;5.68;;;;;;;16.98;63.62;101449.66;5034226;28;20137;-66
2022/06/12 06:15:52;;;;;;;11.45;6.97;;;;;;;16.97;64.24;101457.97;5035207;28;20096;-66
2022/06/12 06:18:20;;;;;;;11.88;6.28;;;;;;;17.09;62.72;101457.34;5034571;28;20088;-66
2022/06/12 06:20:47;;;;;;;11.63;6.63;;;;;;;17.10;63.24;101450.91;5034482;28;20137;-66
2022/06/12 06:23:14;;;;;;;12.60;7.88;;;;;;;16.95;65.04;101452.72;5034621;28;20553;-67
2022/06/12 06:25:41;;;;;;;17.45;8.07;;;;;;;16.57;65.16;101452.72;5034623;28;20136;-67
2022/06/12 06:28:09;;;;;;;12.38;7.95;;;;;;;16.48;65.93;101452.97;5034682;28;20462;-67
2022/06/12 06:30:37;;;;;;;16.63;7.57;;;;;;;16.58;65.70;101456.31;5034497;28;20132;-67
2022/06/12 06:33:05;;;;;;;15.35;6.25;;;;;;;16.48;63.63;101447.56;5034143;28;20084;-67
2022/06/12 06:35:31;;;;;;;10.85;5.70;;;;;;;16.57;63.42;101454.59;5034564;28;20085;-67
2022/06/12 06:37:58;;;;;;;10.77;6.72;;;;;;;16.64;65.07;101448.31;5034507;28;20473;-66
2022/06/12 06:40:28;;;;;;;13.20;6.63;;;;;;;16.73;63.92;101442.81;5034514;28;20046;-66
2022/06/12 06:42:55;;;;;;;10.63;5.97;;;;;;;16.73;61.97;101448.22;5034262;28;20136;-66
2022/06/12 06:48:10;;;;;;;11.38;4.80;;;;;;;17.17;61.02;101463.72;5034413;28;20081;-67
2022/06/12 06:50:38;;;;;;;13.63;5.65;;;;;;;17.56;60.00;101467.00;5017023;28;20052;-68
2022/06/12 06:53:05;;;;;;;8.23;5.25;;;;;;;17.61;60.17;101469.16;5034547;28;20470;-66
2022/06/12 06:55:33;;;;;;;8.55;4.40;;;;;;;17.85;58.63;101466.13;5033951;28;20493;-68
2022/06/12 06:58:00;;;;;;;12.55;6.00;;;;;;;18.02;59.31;101463.19;5034090;28;20085;-67
2022/06/12 07:00:31;;;;;;;12.75;6.68;;;;;;;18.24;58.93;101459.50;5033705;28;20140;-66
2022/06/12 07:02:57;;;;;;;8.75;4.72;;;;;;;18.48;57.70;101458.28;5034060;28;20091;-66
2022/06/12 07:05:25;;;;;;;12.60;7.13;;;;;;;18.45;58.16;101453.22;5033697;28;20125;-66
2022/06/12 07:07:51;;;;;;;14.38;6.82;;;;;;;18.62;57.96;101455.66;5033528;28;20096;-66
2022/06/12 07:10:22;;;;;;;7.75;4.20;;;;;;;18.54;56.13;101460.19;5033820;28;20056;-67
2022/06/12 07:12:49;;;;;;;6.90;4.03;;;;;;;18.41;56.60;101465.53;5033812;28;20045;-66
2022/06/12 07:15:15;;;;;;;10.45;5.03;;;;;;;18.38;57.11;101457.75;5033527;28;20076;-67
2022/06/12 07:17:42;;;;;;;8.00;4.10;;;;;;;18.43;56.31;101457.16;5033600;28;20049;-66
2022/06/12 07:20:13;;;;;;;6.15;4.20;;;;;;;18.48;56.13;101465.56;5033681;28;20088;-66
2022/06/12 07:22:40;;;;;;;6.63;4.53;;;;;;;18.48;55.93;101461.00;5033377;28;20095;-67
2022/06/12 07:25:08;;;;;;;8.57;4.65;;;;;;;18.55;55.90;101459.19;5035619;28;20088;-67
2022/06/12 07:27:34;;;;;;;8.60;4.57;;;;;;;18.59;55.46;101458.78;5037504;28;20085;-67
2022/06/12 07:30:01;;;;;;;9.27;4.57;;;;;;;18.58;55.82;101447.06;5037985;28;20045;-67
2022/06/12 07:32:29;;;;;;;11.25;5.55;;;;;;;18.50;56.36;101450.75;5037350;28;20096;-67
2022/06/12 07:34:56;;;;;;;11.30;4.65;;;;;;;18.52;55.59;101451.41;5037520;28;20413;-67
2022/06/12 07:37:22;;;;;;;7.57;4.65;;;;;;;18.57;55.18;101444.56;5037675;28;20061;-67
2022/06/12 07:39:49;;;;;;;6.00;4.03;;;;;;;18.53;54.67;101442.22;5037970;28;20521;-67
2022/06/12 07:42:16;;;;;;;4.63;2.90;;;;;;;18.41;53.70;101432.06;5019809;28;20072;-68
2022/06/12 07:44:43;;;;;;;7.32;4.00;;;;;;;18.27;54.80;101423.81;5037164;28;20077;-67
2022/06/12 07:47:09;;;;;;;7.32;4.47;;;;;;;18.08;55.63;101432.56;5037574;28;20092;-67
2022/06/12 07:49:36;;;;;;;7.40;3.78;;;;;;;18.09;55.61;101417.94;5037421;28;20053;-67
2022/06/12 07:52:06;;;;;;;6.20;3.17;;;;;;;18.20;55.01;101427.47;5037382;28;20501;-66
2022/06/12 07:54:34;;;;;;;8.02;3.78;;;;;;;18.31;54.76;101422.38;5037067;28;20046;-66
2022/06/12 07:57:00;;;;;;;8.82;3.40;;;;;;;18.39;53.59;101423.28;5037318;28;20136;-66
2022/06/12 07:59:27;;;;;;;8.30;2.95;;;;;;;18.50;53.15;101418.16;5037271;28;20080;-66
2022/06/12 08:01:54;;;;;;;7.93;3.47;;;;;;;18.64;52.83;101416.38;5037253;28;20109;-66
2022/06/12 08:04:22;;;;;;;6.50;2.72;;;;;;;18.50;51.96;101431.75;5037208;28;20073;-66
2022/06/12 08:06:49;;;;;;;6.97;2.53;;;;;;;18.41;51.37;101438.38;5036502;28;20137;-66
2022/06/12 08:09:18;;;;;;;5.40;2.65;;;;;;;18.35;50.51;101427.44;5036848;28;20140;-66
2022/06/12 08:11:47;;;;;;;5.75;2.65;;;;;;;18.32;51.15;101425.94;5036916;28;20421;-66
2022/06/12 08:14:15;;;;;;;9.18;2.40;;;;;;;18.40;51.09;101431.22;5036799;28;20077;-66
2022/06/12 08:16:42;;;;;;;5.72;2.55;;;;;;;18.80;50.27;101431.56;5036846;28;20057;-67
2022/06/12 08:21:57;;;;;;;10.07;3.08;;;;;;;20.01;45.68;101426.59;5036863;28;20049;-67
2022/06/12 08:24:23;;;;;;;4.38;2.22;;;;;;;20.43;46.01;101427.31;5036755;28;20217;-67
2022/06/12 08:26:50;;;;;;;7.50;2.70;;;;;;;20.46;45.25;101426.91;5036467;28;20088;-67
2022/06/12 08:29:21;;;;;;;6.85;2.55;;;;;;;20.39;45.24;101423.31;5036628;28;20414;-67
2022/06/12 08:31:52;;;;;;;4.00;2.25;;;;;;;20.25;45.79;101414.28;5036535;28;20054;-67
2022/06/12 08:34:27;;;;;;;4.30;2.00;;;;;;;20.24;46.26;101418.03;5036739;28;20046;-66
2022/06/12 08:36:57;;;;;;;4.57;2.28;;;;;;;20.52;45.59;101427.94;5035971;28;20140;-67
2022/06/12 08:39:24;;;;;;;4.68;1.83;;;;;;;20.66;45.00;101426.88;5036818;28;20486;-67
2022/06/12 08:42:12;;;;;;;5.47;2.25;;;;;;;20.99;44.22;101426.88;5036983;28;20085;-67
2022/06/12 08:44:50;;;;;;;6.75;2.10;;;;;;;21.00;44.02;101425.81;5036212;28;20057;-67
2022/06/12 08:47:20;;;;;;;5.93;1.92;;;;;;;20.82;42.98;101422.91;5036332;28;20536;-67
2022/06/12 08:49:52;;;;;;;4.75;2.10;;;;;;;20.63;43.79;101427.34;5036013;28;20156;-67
2022/06/12 08:52:31;;;;;;;6.43;2.22;;;;;;;20.44;44.41;101426.25;5036071;28;20077;-67
2022/06/12 08:55:12;;;;;;;8.40;2.28;;;;;;;20.53;44.06;101421.47;5036273;28;20095;-67
2022/06/12 08:58:04;;;;;;;5.20;1.80;;;;;;;20.49;44.44;101418.31;5036499;28;20500;-67
2022/06/12 09:00:38;;;;;;;15.15;2.70;;;;;;;20.81;43.83;101419.34;5025890;28;20412;-67
2022/06/12 09:03:07;;;;;;;7.40;2.35;;;;;;;20.95;43.71;101408.41;5036003;28;20084;-67
2022/06/12 09:06:22;;;;;;;9.00;2.38;;;;;;;20.88;43.04;101414.72;5036552;28;20547;-67
2022/06/12 09:09:04;;;;;;;7.57;2.30;;;;;;;20.69;43.41;101410.13;4955821;29;20451;-68
2022/06/12 09:11:46;;;;;;;6.25;2.20;;;;;;;20.77;43.17;101415.38;4955728;29;20130;-66
2022/06/12 09:14:25;;;;;;;5.65;2.38;;;;;;;20.43;43.93;101414.53;4955966;29;20133;-67
2022/06/12 09:17:16;;;;;;;8.65;2.42;;;;;;;20.71;43.07;101421.66;4955537;29;20130;-66
2022/06/12 09:19:51;;;;;;;7.72;2.38;;;;;;;20.36;44.09;101415.53;4955399;29;20065;-67
2022/06/12 09:22:45;;;;;;;6.50;2.55;;;;;;;20.39;43.84;101410.53;4955605;29;20086;-67
2022/06/12 09:25:21;;;;;;;6.03;2.20;;;;;;;20.27;44.24;101412.16;4956245;29;20476;-67
2022/06/12 09:27:51;;;;;;;8.27;2.38;;;;;;;20.32;43.84;101412.41;4955188;29;20083;-66
2022/06/12 09:30:31;;;;;;;10.65;2.55;;;;;;;20.27;43.80;101411.34;4955376;29;20440;-66
2022/06/12 09:33:12;;;;;;;6.88;2.40;;;;;;;20.43;43.43;101417.25;4955362;29;20078;-67
2022/06/12 09:35:58;;;;;;;4.93;2.50;;;;;;;20.74;42.79;101409.50;4955553;29;20157;-67
2022/06/12 09:38:59;;;;;;;4.75;2.10;;;;;;;20.83;43.07;101410.94;4964372;28;20058;-67
2022/06/12 09:42:10;;;;;;;7.05;2.53;;;;;;;20.62;44.02;101410.13;5036658;28;20121;-66
2022/06/12 09:45:00;;;;;;;9.52;2.67;;;;;;;20.31;45.01;101412.59;5002257;28;20512;-66
2022/06/12 09:47:38;;;;;;;11.48;3.13;;;;;;;20.34;45.02;101407.56;5034914;28;20141;-67
2022/06/12 09:50:16;;;;;;;5.88;2.65;;;;;;;20.27;45.07;101406.72;5035265;28;20053;-66
2022/06/12 09:53:16;;;;;;;6.88;2.72;;;;;;;20.49;44.52;101401.97;5035109;28;20103;-68
2022/06/12 09:55:53;;;;;;;4.22;2.42;;;;;;;20.16;45.52;101410.06;5034715;28;20053;-67
2022/06/12 09:58:29;;;;;;;8.05;2.47;;;;;;;20.29;44.95;101401.91;5017584;28;20132;-67
2022/06/12 10:01:04;;;;;;;6.60;2.42;;;;;;;20.27;43.65;101401.28;5035251;28;20137;-67
2022/06/12 10:03:50;;;;;;;7.20;2.22;;;;;;;20.34;43.15;101404.84;5034638;28;20057;-66
2022/06/12 10:06:28;;;;;;;9.35;2.53;;;;;;;20.21;43.19;101407.53;5034713;28;20144;-66
2022/06/12 10:09:19;;;;;;;6.85;2.20;;;;;;;20.29;43.24;101391.00;5035345;28;20054;-66
2022/06/12 10:11:58;;;;;;;7.38;2.33;;;;;;;20.15;43.64;101397.50;5034717;28;20125;-66
2022/06/12 10:14:33;;;;;;;8.88;2.33;;;;;;;20.17;43.79;101395.38;5034388;28;20045;-66
2022/06/12 10:17:07;;;;;;;5.93;2.22;;;;;;;20.24;43.62;101395.41;5034257;28;20136;-67
2022/06/12 10:19:41;;;;;;;7.38;2.15;;;;;;;20.13;44.32;101396.84;5034445;28;20478;-67
2022/06/12 10:22:16;;;;;;;7.80;2.38;;;;;;;20.24;44.36;101389.94;5034700;28;20522;-66
2022/06/12 10:24:49;;;;;;;9.20;2.60;;;;;;;20.27;44.42;101386.81;5034248;28;20046;-67
2022/06/12 10:27:19;;;;;;;5.20;2.08;;;;;;;20.44;44.27;101386.22;5034028;28;20136;-66
2022/06/12 10:29:55;;;;;;;4.65;2.05;;;;;;;21.16;42.52;101386.38;5035101;28;20119;-66
2022/06/12 10:32:39;;;;;;;7.68;2.22;;;;;;;21.55;40.92;101376.34;5034077;28;20053;-66
2022/06/12 10:35:17;;;;;;;9.25;2.30;;;;;;;21.91;40.12;101381.22;5034350;28;20084;-66
2022/06/12 10:37:43;;;;;;;7.50;2.10;;;;;;;21.44;41.47;101377.84;5035018;28;20099;-66
2022/06/12 10:40:21;;;;;;;9.73;2.58;;;;;;;21.09;42.44;101382.78;5036978;28;20045;-67
2022/06/12 10:43:06;;;;;;;9.48;2.55;;;;;;;21.16;42.02;101383.63;5034142;28;20145;-67
2022/06/12 10:45:36;;;;;;;6.43;2.35;;;;;;;21.25;41.67;101386.94;5034293;28;20551;-66
2022/06/12 10:48:24;;;;;;;9.95;2.75;;;;;;;20.85;42.55;101385.13;5034149;28;20058;-66
2022/06/12 10:50:58;;;;;;;12.05;2.58;;;;;;;21.43;41.23;101375.34;5034512;28;20095;-67
2022/06/12 10:53:28;;;;;;;9.50;2.70;;;;;;;21.76;40.14;101378.75;5034016;28;20408;-67
2022/06/12 10:56:31;;;;;;;9.20;2.60;;;;;;;22.40;36.92;101374.13;5034044;28;20053;-67
2022/06/12 10:59:16;;;;;;;8.35;2.58;;;;;;;22.68;36.41;101368.22;5033717;28;20438;-67
2022/06/12 11:01:49;;;;;;;9.68;2.25;;;;;;;23.23;35.39;101375.69;5034201;28;20099;-67
2022/06/12 11:04:40;;;;;;;8.27;1.90;;;;;;;23.01;37.37;101364.28;5034173;28;20125;-66
2022/06/12 11:07:16;;;;;;;7.53;1.90;;;;;;;22.99;35.10;101378.22;5034105;28;20084;-67
2022/06/12 11:09:54;;;;;;;8.70;2.35;;;;;;;22.84;34.76;101372.25;5033887;28;20549;-67
2022/06/12 11:12:21;;;;;;;7.40;2.17;;;;;;;22.81;35.94;101364.53;5033688;28;20100;-67
2022/06/12 11:14:55;;;;;;;12.98;2.22;;;;;;;22.58;35.28;101354.22;5034019;28;20053;-67
2022/06/12 11:17:41;;;;;;;5.85;2.00;;;;;;;23.22;34.34;101360.28;5026784;28;20375;-67
2022/06/12 11:20:40;;;;;;;9.05;2.50;;;;;;;22.99;34.09;101356.31;5034062;28;20057;-67
2022/06/12 11:23:21;;;;;;;6.28;2.03;;;;;;;23.25;35.36;101348.88;5033826;28;20141;-68
2022/06/12 11:26:14;;;;;;;;;;;;;;;22.90;35.21;101356.84;5034752;28;20045;-67
2022/06/12 11:29:01;;;;;;;8.05;1.92;;;;;;;22.40;35.46;101338.59;5033821;28;20023;-67
2022/06/12 11:31:41;;;;;;;8.77;2.67;;;;;;;22.20;36.58;101341.50;5026763;28;20128;-67
2022/06/12 11:34:15;;;;;;;6.65;2.30;;;;;;;22.41;36.00;101337.53;5034351;28;20136;-67
2022/06/12 11:36:57;;;;;;;6.45;2.20;;;;;;;22.07;37.56;101336.13;5033867;28;20050;-66
2022/06/12 11:39:42;;;;;;;;;;;;;;;22.17;36.84;101333.72;5034348;28;20136;-66
2022/06/12 11:42:16;;;;;;;6.18;2.13;;;;;;;22.47;36.33;101327.63;5034117;28;19928;-67
2022/06/12 11:44:54;;;;;;;13.20;2.95;;;;;;;22.59;34.65;101327.72;5033125;28;20152;-67
2022/06/12 11:47:53;;;;;;;5.68;2.30;;;;;;;22.22;38.08;101325.72;5025568;28;20080;-66
2022/06/12 11:50:26;;;;;;;6.35;1.70;;;;;;;22.24;38.66;101315.38;4999969;28;20136;-67
2022/06/12 11:53:02;;;;;;;10.65;2.40;;;;;;;22.25;36.33;101324.41;5033421;28;20080;-67
2022/06/12 11:55:46;;;;;;;7.75;2.22;;;;;;;22.02;37.57;101319.56;5033735;28;20405;-67
2022/06/12 11:58:13;;;;;;;7.85;2.17;;;;;;;21.97;37.81;101317.50;5034093;28;20081;-67
2022/06/12 12:01:10;;;;;;;6.82;2.40;;;;;;;21.85;37.39;101320.09;5033763;28;20521;-67
2022/06/12 12:03:58;;;;;;;10.98;2.20;;;;;;;21.85;36.47;101317.38;5033697;28;20124;-66
2022/06/12 12:06:33;;;;;;;11.98;2.97;;;;;;;21.83;35.72;101314.00;5033046;28;20072;-67
2022/06/12 12:09:18;;;;;;;3.80;1.48;;;;;;;21.90;36.56;101311.25;5033487;28;20105;-67
2022/06/12 12:11:58;;;;;;;6.82;2.08;;;;;;;21.86;35.22;101304.56;5034443;28;20068;-66